sensor_id;sensor_type;location;lat;lon;timestamp;P1;durP1;ratioP1;P2;durP2;ratioP2
17741;SDS011;8993;51.822;-2.268;2023-02-01T00:00:20;29.95;;;4.79;;
17741;SDS011;8993;51.822;-2.268;2023-02-01T00:05:25;28.74;;;4.03;;
17741;SDS011;8993;51.822;-2.268;2023-02-01T00:10:28;29.65;;;4.27;;
17741;SDS011;8993;51.822;-2.268;2023-02-01T00:15:32;34.41;;;4.60;;
17741;SDS011;8993;51.822;-2.268;2023-02-01T00:20:36;30.54;;;3.88;;
17741;SDS011;8993;51.822;-2.268;2023-02-01T00:25:41;33.32;;;3.68;;
17741;SDS011;8993;51.822;-2.268;2023-02-01T00:30:45;28.65;;;3.26;;
17741;SDS011;8993;51.822;-2.268;2023-02-01T00:35:48;26.04;;;3.17;;
17741;SDS011;8993;51.822;-2.268;2023-02-01T00:40:52;29.88;;;3.91;;
17741;SDS011;8993;51.822;-2.268;2023-02-01T00:45:57;27.90;;;3.40;;
17741;SDS011;8993;51.822;-2.268;2023-02-01T00:51:01;28.45;;;3.35;;
17741;SDS011;8993;51.822;-2.268;2023-02-01T00:56:05;30.09;;;3.28;;
17741;SDS011;8993;51.822;-2.268;2023-02-01T01:01:11;26.57;;;3.42;;
17741;SDS011;8993;51.822;-2.268;2023-02-01T01:06:14;25.84;;;3.28;;
17741;SDS011;8993;51.822;-2.268;2023-02-01T01:11:19;27.02;;;3.37;;
17741;SDS011;8993;51.822;-2.268;2023-02-01T01:16:22;29.74;;;3.48;;
17741;SDS011;8993;51.822;-2.268;2023-02-01T01:21:26;25.62;;;3.17;;
17741;SDS011;8993;51.822;-2.268;2023-02-01T01:26:30;27.65;;;3.46;;
17741;SDS011;8993;51.822;-2.268;2023-02-01T01:31:34;26.78;;;3.04;;
17741;SDS011;8993;51.822;-2.268;2023-02-01T01:36:38;26.26;;;3.08;;
17741;SDS011;8993;51.822;-2.268;2023-02-01T01:41:44;24.46;;;3.25;;
17741;SDS011;8993;51.822;-2.268;2023-02-01T01:46:48;25.10;;;3.18;;
17741;SDS011;8993;51.822;-2.268;2023-02-01T01:51:52;24.56;;;2.82;;
17741;SDS011;8993;51.822;-2.268;2023-02-01T01:56:57;23.12;;;3.06;;
17741;SDS011;8993;51.822;-2.268;2023-02-01T02:02:00;24.86;;;3.00;;
17741;SDS011;8993;51.822;-2.268;2023-02-01T02:07:05;26.70;;;3.05;;
17741;SDS011;8993;51.822;-2.268;2023-02-01T02:12:08;22.38;;;2.82;;
17741;SDS011;8993;51.822;-2.268;2023-02-01T02:17:16;24.91;;;3.19;;
17741;SDS011;8993;51.822;-2.268;2023-02-01T02:22:33;24.60;;;2.99;;
17741;SDS011;8993;51.822;-2.268;2023-02-01T02:27:21;24.17;;;3.16;;
17741;SDS011;8993;51.822;-2.268;2023-02-01T02:32:37;23.10;;;3.00;;
17741;SDS011;8993;51.822;-2.268;2023-02-01T02:37:30;25.18;;;3.07;;
17741;SDS011;8993;51.822;-2.268;2023-02-01T02:42:34;29.40;;;3.11;;
17741;SDS011;8993;51.822;-2.268;2023-02-01T02:47:39;30.18;;;3.58;;
17741;SDS011;8993;51.822;-2.268;2023-02-01T02:52:45;29.77;;;3.27;;
17741;SDS011;8993;51.822;-2.268;2023-02-01T02:57:47;30.82;;;3.32;;
17741;SDS011;8993;51.822;-2.268;2023-02-01T03:02:51;27.76;;;3.16;;
17741;SDS011;8993;51.822;-2.268;2023-02-01T03:07:57;28.20;;;2.90;;
17741;SDS011;8993;51.822;-2.268;2023-02-01T03:13:02;24.99;;;3.09;;
17741;SDS011;8993;51.822;-2.268;2023-02-01T03:18:05;25.11;;;2.97;;
17741;SDS011;8993;51.822;-2.268;2023-02-01T03:23:08;23.12;;;2.87;;
17741;SDS011;8993;51.822;-2.268;2023-02-01T03:28:12;26.89;;;3.16;;
17741;SDS011;8993;51.822;-2.268;2023-02-01T03:33:18;24.77;;;2.76;;
17741;SDS011;8993;51.822;-2.268;2023-02-01T03:38:23;24.23;;;3.11;;
17741;SDS011;8993;51.822;-2.268;2023-02-01T03:43:26;23.41;;;2.79;;
17741;SDS011;8993;51.822;-2.268;2023-02-01T03:48:30;23.24;;;2.98;;
17741;SDS011;8993;51.822;-2.268;2023-02-01T03:53:34;23.81;;;2.99;;
17741;SDS011;8993;51.822;-2.268;2023-02-01T03:58:39;24.25;;;2.88;;
17741;SDS011;8993;51.822;-2.268;2023-02-01T04:03:42;24.33;;;3.07;;
17741;SDS011;8993;51.822;-2.268;2023-02-01T04:08:47;26.88;;;3.11;;
17741;SDS011;8993;51.822;-2.268;2023-02-01T04:13:50;29.13;;;3.30;;
17741;SDS011;8993;51.822;-2.268;2023-02-01T04:18:54;25.21;;;2.81;;
17741;SDS011;8993;51.822;-2.268;2023-02-01T04:23:58;28.67;;;3.09;;
17741;SDS011;8993;51.822;-2.268;2023-02-01T04:29:03;27.14;;;3.28;;
17741;SDS011;8993;51.822;-2.268;2023-02-01T04:34:07;27.03;;;2.74;;
17741;SDS011;8993;51.822;-2.268;2023-02-01T04:39:11;28.15;;;3.15;;
17741;SDS011;8993;51.822;-2.268;2023-02-01T04:44:16;24.33;;;2.92;;
17741;SDS011;8993;51.822;-2.268;2023-02-01T04:49:20;27.71;;;3.00;;
17741;SDS011;8993;51.822;-2.268;2023-02-01T04:54:23;29.84;;;3.28;;
17741;SDS011;8993;51.822;-2.268;2023-02-01T04:59:28;26.81;;;3.21;;
17741;SDS011;8993;51.822;-2.268;2023-02-01T05:04:32;27.02;;;3.17;;
17741;SDS011;8993;51.822;-2.268;2023-02-01T05:09:36;27.24;;;3.22;;
17741;SDS011;8993;51.822;-2.268;2023-02-01T05:14:40;23.91;;;2.74;;
17741;SDS011;8993;51.822;-2.268;2023-02-01T05:19:44;28.76;;;3.24;;
17741;SDS011;8993;51.822;-2.268;2023-02-01T05:24:48;28.56;;;3.45;;
17741;SDS011;8993;51.822;-2.268;2023-02-01T05:29:53;29.54;;;3.32;;
17741;SDS011;8993;51.822;-2.268;2023-02-01T05:34:57;29.98;;;3.20;;
17741;SDS011;8993;51.822;-2.268;2023-02-01T05:40:01;26.93;;;3.01;;
17741;SDS011;8993;51.822;-2.268;2023-02-01T05:45:06;28.11;;;3.18;;
17741;SDS011;8993;51.822;-2.268;2023-02-01T05:50:09;25.15;;;2.87;;
17741;SDS011;8993;51.822;-2.268;2023-02-01T05:55:13;26.75;;;3.10;;
17741;SDS011;8993;51.822;-2.268;2023-02-01T06:00:18;26.39;;;3.06;;
17741;SDS011;8993;51.822;-2.268;2023-02-01T06:05:21;22.13;;;3.21;;
17741;SDS011;8993;51.822;-2.268;2023-02-01T06:10:25;27.14;;;3.51;;
17741;SDS011;8993;51.822;-2.268;2023-02-01T06:15:29;24.29;;;3.01;;
17741;SDS011;8993;51.822;-2.268;2023-02-01T06:20:33;31.99;;;3.19;;
17741;SDS011;8993;51.822;-2.268;2023-02-01T06:25:38;32.77;;;3.26;;
17741;SDS011;8993;51.822;-2.268;2023-02-01T06:30:43;30.09;;;3.04;;
17741;SDS011;8993;51.822;-2.268;2023-02-01T06:35:47;28.36;;;3.13;;
17741;SDS011;8993;51.822;-2.268;2023-02-01T06:40:51;28.33;;;2.97;;
17741;SDS011;8993;51.822;-2.268;2023-02-01T06:45:59;28.77;;;3.46;;
17741;SDS011;8993;51.822;-2.268;2023-02-01T06:50:59;26.52;;;3.17;;
17741;SDS011;8993;51.822;-2.268;2023-02-01T06:56:03;23.62;;;2.65;;
17741;SDS011;8993;51.822;-2.268;2023-02-01T07:01:08;23.32;;;2.54;;
17741;SDS011;8993;51.822;-2.268;2023-02-01T07:06:12;27.90;;;2.46;;
17741;SDS011;8993;51.822;-2.268;2023-02-01T07:11:16;26.68;;;2.76;;
17741;SDS011;8993;51.822;-2.268;2023-02-01T07:16:20;24.59;;;2.76;;
17741;SDS011;8993;51.822;-2.268;2023-02-01T07:21:24;23.61;;;2.38;;
17741;SDS011;8993;51.822;-2.268;2023-02-01T07:26:28;22.60;;;2.38;;
17741;SDS011;8993;51.822;-2.268;2023-02-01T07:31:32;21.39;;;2.59;;
17741;SDS011;8993;51.822;-2.268;2023-02-01T07:36:36;24.42;;;2.78;;
17741;SDS011;8993;51.822;-2.268;2023-02-01T07:41:40;22.30;;;2.16;;
17741;SDS011;8993;51.822;-2.268;2023-02-01T07:46:46;24.75;;;2.76;;
17741;SDS011;8993;51.822;-2.268;2023-02-01T07:51:50;24.49;;;2.82;;
17741;SDS011;8993;51.822;-2.268;2023-02-01T07:56:54;23.67;;;2.58;;
17741;SDS011;8993;51.822;-2.268;2023-02-01T08:01:57;24.54;;;2.86;;
17741;SDS011;8993;51.822;-2.268;2023-02-01T08:07:01;22.54;;;2.77;;
17741;SDS011;8993;51.822;-2.268;2023-02-01T08:12:06;23.16;;;2.50;;
17741;SDS011;8993;51.822;-2.268;2023-02-01T08:17:09;25.14;;;2.74;;
17741;SDS011;8993;51.822;-2.268;2023-02-01T08:22:14;25.14;;;2.41;;
17741;SDS011;8993;51.822;-2.268;2023-02-01T08:27:18;22.23;;;2.43;;
17741;SDS011;8993;51.822;-2.268;2023-02-01T08:32:22;23.41;;;2.59;;
17741;SDS011;8993;51.822;-2.268;2023-02-01T08:37:26;22.23;;;2.73;;
17741;SDS011;8993;51.822;-2.268;2023-02-01T08:42:30;25.50;;;2.72;;
17741;SDS011;8993;51.822;-2.268;2023-02-01T08:47:37;21.59;;;2.98;;
17741;SDS011;8993;51.822;-2.268;2023-02-01T08:52:41;25.38;;;2.95;;
17741;SDS011;8993;51.822;-2.268;2023-02-01T08:57:45;25.59;;;3.25;;
17741;SDS011;8993;51.822;-2.268;2023-02-01T09:02:51;21.98;;;2.68;;
17741;SDS011;8993;51.822;-2.268;2023-02-01T09:07:54;23.96;;;2.42;;
17741;SDS011;8993;51.822;-2.268;2023-02-01T09:12:59;26.39;;;2.81;;
17741;SDS011;8993;51.822;-2.268;2023-02-01T09:18:03;21.47;;;2.40;;
17741;SDS011;8993;51.822;-2.268;2023-02-01T09:23:07;22.86;;;2.63;;
17741;SDS011;8993;51.822;-2.268;2023-02-01T09:28:11;25.91;;;2.73;;
17741;SDS011;8993;51.822;-2.268;2023-02-01T09:33:15;20.59;;;2.41;;
17741;SDS011;8993;51.822;-2.268;2023-02-01T09:38:19;26.17;;;2.79;;
17741;SDS011;8993;51.822;-2.268;2023-02-01T09:43:28;24.05;;;2.66;;
17741;SDS011;8993;51.822;-2.268;2023-02-01T09:48:29;26.80;;;2.89;;
17741;SDS011;8993;51.822;-2.268;2023-02-01T09:53:33;24.70;;;2.91;;
17741;SDS011;8993;51.822;-2.268;2023-02-01T09:58:36;22.70;;;2.47;;
17741;SDS011;8993;51.822;-2.268;2023-02-01T10:03:41;21.40;;;2.42;;
17741;SDS011;8993;51.822;-2.268;2023-02-01T10:08:54;23.24;;;2.66;;
17741;SDS011;8993;51.822;-2.268;2023-02-01T10:13:52;23.86;;;2.62;;
17741;SDS011;8993;51.822;-2.268;2023-02-01T10:18:57;21.78;;;2.54;;
17741;SDS011;8993;51.822;-2.268;2023-02-01T10:24:02;23.76;;;2.55;;
17741;SDS011;8993;51.822;-2.268;2023-02-01T10:29:03;23.15;;;2.43;;
17741;SDS011;8993;51.822;-2.268;2023-02-01T10:34:10;20.30;;;2.66;;
17741;SDS011;8993;51.822;-2.268;2023-02-01T10:39:10;19.91;;;2.45;;
17741;SDS011;8993;51.822;-2.268;2023-02-01T10:44:16;25.47;;;2.53;;
17741;SDS011;8993;51.822;-2.268;2023-02-01T10:49:22;21.26;;;2.31;;
17741;SDS011;8993;51.822;-2.268;2023-02-01T10:54:32;21.17;;;2.36;;
17741;SDS011;8993;51.822;-2.268;2023-02-01T10:59:29;20.11;;;2.62;;
17741;SDS011;8993;51.822;-2.268;2023-02-01T11:04:33;20.30;;;2.39;;
17741;SDS011;8993;51.822;-2.268;2023-02-01T11:09:38;22.42;;;2.51;;
17741;SDS011;8993;51.822;-2.268;2023-02-01T11:14:41;23.19;;;2.47;;
17741;SDS011;8993;51.822;-2.268;2023-02-01T11:19:45;21.34;;;2.52;;
17741;SDS011;8993;51.822;-2.268;2023-02-01T11:24:49;20.08;;;2.48;;
17741;SDS011;8993;51.822;-2.268;2023-02-01T11:29:55;20.55;;;2.35;;
17741;SDS011;8993;51.822;-2.268;2023-02-01T11:34:59;25.03;;;2.50;;
17741;SDS011;8993;51.822;-2.268;2023-02-01T11:40:03;21.56;;;2.49;;
17741;SDS011;8993;51.822;-2.268;2023-02-01T11:45:16;17.74;;;2.32;;
17741;SDS011;8993;51.822;-2.268;2023-02-01T11:50:13;22.55;;;2.24;;
17741;SDS011;8993;51.822;-2.268;2023-02-01T11:55:18;15.69;;;2.02;;
17741;SDS011;8993;51.822;-2.268;2023-02-01T12:00:26;19.73;;;2.29;;
17741;SDS011;8993;51.822;-2.268;2023-02-01T12:05:27;21.08;;;2.42;;
17741;SDS011;8993;51.822;-2.268;2023-02-01T12:10:31;21.67;;;2.34;;
17741;SDS011;8993;51.822;-2.268;2023-02-01T12:15:36;21.47;;;2.46;;
17741;SDS011;8993;51.822;-2.268;2023-02-01T12:20:47;23.47;;;2.52;;
17741;SDS011;8993;51.822;-2.268;2023-02-01T12:25:43;20.36;;;2.69;;
17741;SDS011;8993;51.822;-2.268;2023-02-01T12:30:48;23.02;;;2.34;;
17741;SDS011;8993;51.822;-2.268;2023-02-01T12:35:52;18.49;;;2.27;;
17741;SDS011;8993;51.822;-2.268;2023-02-01T12:40:57;22.03;;;2.35;;
17741;SDS011;8993;51.822;-2.268;2023-02-01T12:45:58;17.68;;;2.17;;
17741;SDS011;8993;51.822;-2.268;2023-02-01T12:51:02;19.65;;;2.22;;
17741;SDS011;8993;51.822;-2.268;2023-02-01T12:56:06;18.25;;;2.29;;
17741;SDS011;8993;51.822;-2.268;2023-02-01T13:01:09;14.82;;;1.93;;
17741;SDS011;8993;51.822;-2.268;2023-02-01T13:06:15;18.51;;;2.01;;
17741;SDS011;8993;51.822;-2.268;2023-02-01T13:11:19;17.83;;;1.99;;
17741;SDS011;8993;51.822;-2.268;2023-02-01T13:16:23;17.45;;;1.89;;
17741;SDS011;8993;51.822;-2.268;2023-02-01T13:21:27;19.65;;;2.09;;
17741;SDS011;8993;51.822;-2.268;2023-02-01T13:26:30;19.89;;;2.09;;
17741;SDS011;8993;51.822;-2.268;2023-02-01T13:32:10;20.48;;;2.09;;
17741;SDS011;8993;51.822;-2.268;2023-02-01T13:41:50;17.48;;;2.06;;
17741;SDS011;8993;51.822;-2.268;2023-02-01T13:46:48;15.14;;;1.90;;
17741;SDS011;8993;51.822;-2.268;2023-02-01T13:51:52;19.97;;;2.07;;
17741;SDS011;8993;51.822;-2.268;2023-02-01T13:56:56;18.41;;;1.97;;
17741;SDS011;8993;51.822;-2.268;2023-02-01T14:02:11;19.45;;;2.14;;
17741;SDS011;8993;51.822;-2.268;2023-02-01T14:07:15;21.19;;;2.29;;
17741;SDS011;8993;51.822;-2.268;2023-02-01T14:12:48;19.67;;;2.15;;
17741;SDS011;8993;51.822;-2.268;2023-02-01T14:22:32;18.34;;;2.56;;
17741;SDS011;8993;51.822;-2.268;2023-02-01T14:27:30;22.41;;;2.65;;
17741;SDS011;8993;51.822;-2.268;2023-02-01T14:32:33;20.70;;;2.56;;
17741;SDS011;8993;51.822;-2.268;2023-02-01T14:37:37;21.01;;;2.54;;
17741;SDS011;8993;51.822;-2.268;2023-02-01T14:42:43;17.81;;;2.43;;
17741;SDS011;8993;51.822;-2.268;2023-02-01T14:47:46;18.77;;;2.09;;
17741;SDS011;8993;51.822;-2.268;2023-02-01T14:52:58;22.67;;;2.29;;
17741;SDS011;8993;51.822;-2.268;2023-02-01T14:57:56;20.77;;;2.36;;
17741;SDS011;8993;51.822;-2.268;2023-02-01T15:03:13;17.71;;;2.27;;
17741;SDS011;8993;51.822;-2.268;2023-02-01T15:08:05;19.28;;;2.18;;
17741;SDS011;8993;51.822;-2.268;2023-02-01T15:13:12;20.07;;;2.32;;
17741;SDS011;8993;51.822;-2.268;2023-02-01T15:18:14;19.29;;;2.07;;
17741;SDS011;8993;51.822;-2.268;2023-02-01T15:23:16;15.39;;;1.61;;
17741;SDS011;8993;51.822;-2.268;2023-02-01T15:28:20;15.41;;;1.72;;
17741;SDS011;8993;51.822;-2.268;2023-02-01T15:33:25;15.10;;;1.79;;
17741;SDS011;8993;51.822;-2.268;2023-02-01T15:38:33;16.86;;;1.75;;
17741;SDS011;8993;51.822;-2.268;2023-02-01T15:43:34;15.11;;;1.72;;
17741;SDS011;8993;51.822;-2.268;2023-02-01T15:48:39;18.26;;;2.03;;
17741;SDS011;8993;51.822;-2.268;2023-02-01T15:53:43;14.92;;;1.78;;
17741;SDS011;8993;51.822;-2.268;2023-02-01T15:58:45;15.42;;;1.85;;
17741;SDS011;8993;51.822;-2.268;2023-02-01T16:03:49;18.28;;;2.28;;
17741;SDS011;8993;51.822;-2.268;2023-02-01T16:08:55;15.34;;;2.02;;
17741;SDS011;8993;51.822;-2.268;2023-02-01T16:13:57;19.67;;;2.33;;
17741;SDS011;8993;51.822;-2.268;2023-02-01T16:19:01;15.85;;;1.97;;
17741;SDS011;8993;51.822;-2.268;2023-02-01T16:24:05;14.69;;;1.93;;
17741;SDS011;8993;51.822;-2.268;2023-02-01T16:29:10;18.08;;;2.28;;
17741;SDS011;8993;51.822;-2.268;2023-02-01T16:34:14;13.09;;;1.86;;
17741;SDS011;8993;51.822;-2.268;2023-02-01T16:39:18;16.19;;;1.75;;
17741;SDS011;8993;51.822;-2.268;2023-02-01T16:44:22;12.07;;;1.53;;
17741;SDS011;8993;51.822;-2.268;2023-02-01T16:49:26;17.23;;;2.22;;
17741;SDS011;8993;51.822;-2.268;2023-02-01T16:54:30;15.44;;;2.28;;
17741;SDS011;8993;51.822;-2.268;2023-02-01T16:59:34;14.34;;;2.06;;
17741;SDS011;8993;51.822;-2.268;2023-02-01T17:04:39;14.92;;;1.57;;
17741;SDS011;8993;51.822;-2.268;2023-02-01T17:09:43;15.90;;;1.75;;
17741;SDS011;8993;51.822;-2.268;2023-02-01T17:14:47;15.65;;;1.79;;
17741;SDS011;8993;51.822;-2.268;2023-02-01T17:19:51;13.34;;;1.53;;
17741;SDS011;8993;51.822;-2.268;2023-02-01T17:24:55;14.29;;;1.77;;
17741;SDS011;8993;51.822;-2.268;2023-02-01T17:29:59;15.90;;;1.85;;
17741;SDS011;8993;51.822;-2.268;2023-02-01T17:35:04;17.59;;;1.71;;
17741;SDS011;8993;51.822;-2.268;2023-02-01T17:40:09;13.48;;;1.68;;
17741;SDS011;8993;51.822;-2.268;2023-02-01T17:45:18;16.51;;;1.76;;
17741;SDS011;8993;51.822;-2.268;2023-02-01T17:50:17;14.28;;;1.73;;
17741;SDS011;8993;51.822;-2.268;2023-02-01T17:55:21;18.46;;;2.53;;
17741;SDS011;8993;51.822;-2.268;2023-02-01T18:00:25;13.78;;;2.18;;
17741;SDS011;8993;51.822;-2.268;2023-02-01T18:05:31;17.48;;;2.12;;
17741;SDS011;8993;51.822;-2.268;2023-02-01T18:10:34;17.69;;;2.56;;
17741;SDS011;8993;51.822;-2.268;2023-02-01T18:15:40;17.01;;;1.90;;
17741;SDS011;8993;51.822;-2.268;2023-02-01T18:20:44;15.61;;;1.87;;
17741;SDS011;8993;51.822;-2.268;2023-02-01T18:25:50;13.80;;;1.87;;
17741;SDS011;8993;51.822;-2.268;2023-02-01T18:30:53;15.15;;;1.79;;
17741;SDS011;8993;51.822;-2.268;2023-02-01T18:35:58;14.92;;;1.65;;
17741;SDS011;8993;51.822;-2.268;2023-02-01T18:41:01;15.15;;;2.38;;
17741;SDS011;8993;51.822;-2.268;2023-02-01T18:46:07;15.16;;;1.87;;
17741;SDS011;8993;51.822;-2.268;2023-02-01T18:51:10;13.53;;;1.77;;
17741;SDS011;8993;51.822;-2.268;2023-02-01T18:56:16;15.14;;;1.95;;
17741;SDS011;8993;51.822;-2.268;2023-02-01T19:01:20;16.06;;;1.84;;
17741;SDS011;8993;51.822;-2.268;2023-02-01T19:06:24;14.72;;;2.32;;
17741;SDS011;8993;51.822;-2.268;2023-02-01T19:11:28;14.90;;;2.55;;
17741;SDS011;8993;51.822;-2.268;2023-02-01T19:16:32;17.29;;;2.64;;
17741;SDS011;8993;51.822;-2.268;2023-02-01T19:21:36;18.62;;;3.31;;
17741;SDS011;8993;51.822;-2.268;2023-02-01T19:26:40;14.14;;;2.21;;
17741;SDS011;8993;51.822;-2.268;2023-02-01T19:31:44;18.91;;;2.37;;
17741;SDS011;8993;51.822;-2.268;2023-02-01T19:36:48;15.05;;;2.18;;
17741;SDS011;8993;51.822;-2.268;2023-02-01T19:41:53;17.71;;;2.75;;
17741;SDS011;8993;51.822;-2.268;2023-02-01T19:46:57;17.69;;;2.30;;
17741;SDS011;8993;51.822;-2.268;2023-02-01T19:52:02;22.29;;;2.79;;
17741;SDS011;8993;51.822;-2.268;2023-02-01T19:57:09;18.41;;;2.80;;
17741;SDS011;8993;51.822;-2.268;2023-02-01T20:02:14;22.34;;;3.04;;
17741;SDS011;8993;51.822;-2.268;2023-02-01T20:07:18;19.88;;;2.82;;
17741;SDS011;8993;51.822;-2.268;2023-02-01T20:12:21;23.33;;;3.14;;
17741;SDS011;8993;51.822;-2.268;2023-02-01T20:17:25;18.71;;;2.59;;
17741;SDS011;8993;51.822;-2.268;2023-02-01T20:22:29;17.09;;;2.35;;
17741;SDS011;8993;51.822;-2.268;2023-02-01T20:27:33;19.45;;;2.41;;
17741;SDS011;8993;51.822;-2.268;2023-02-01T20:32:37;18.28;;;2.15;;
17741;SDS011;8993;51.822;-2.268;2023-02-01T20:37:41;16.49;;;2.22;;
17741;SDS011;8993;51.822;-2.268;2023-02-01T20:42:46;22.14;;;2.57;;
17741;SDS011;8993;51.822;-2.268;2023-02-01T20:47:50;19.12;;;2.59;;
17741;SDS011;8993;51.822;-2.268;2023-02-01T20:52:54;21.75;;;2.62;;
17741;SDS011;8993;51.822;-2.268;2023-02-01T20:57:58;20.79;;;2.87;;
17741;SDS011;8993;51.822;-2.268;2023-02-01T21:03:02;20.18;;;2.53;;
17741;SDS011;8993;51.822;-2.268;2023-02-01T21:08:06;21.09;;;2.79;;
17741;SDS011;8993;51.822;-2.268;2023-02-01T21:13:11;17.07;;;2.38;;
17741;SDS011;8993;51.822;-2.268;2023-02-01T21:18:15;23.04;;;2.64;;
17741;SDS011;8993;51.822;-2.268;2023-02-01T21:23:19;20.72;;;2.47;;
17741;SDS011;8993;51.822;-2.268;2023-02-01T21:28:23;22.66;;;2.61;;
17741;SDS011;8993;51.822;-2.268;2023-02-01T21:33:27;22.86;;;2.85;;
17741;SDS011;8993;51.822;-2.268;2023-02-01T21:38:32;20.14;;;2.53;;
17741;SDS011;8993;51.822;-2.268;2023-02-01T21:43:36;19.64;;;2.47;;
17741;SDS011;8993;51.822;-2.268;2023-02-01T21:48:40;21.60;;;2.58;;
17741;SDS011;8993;51.822;-2.268;2023-02-01T21:53:44;22.71;;;2.87;;
17741;SDS011;8993;51.822;-2.268;2023-02-01T21:58:48;20.93;;;3.13;;
17741;SDS011;8993;51.822;-2.268;2023-02-01T22:03:52;23.06;;;3.46;;
17741;SDS011;8993;51.822;-2.268;2023-02-01T22:08:56;23.36;;;3.44;;
17741;SDS011;8993;51.822;-2.268;2023-02-01T22:14:00;23.03;;;2.99;;
17741;SDS011;8993;51.822;-2.268;2023-02-01T22:19:04;22.11;;;2.72;;
17741;SDS011;8993;51.822;-2.268;2023-02-01T22:24:09;20.41;;;2.26;;
17741;SDS011;8993;51.822;-2.268;2023-02-01T22:29:12;18.52;;;2.38;;
17741;SDS011;8993;51.822;-2.268;2023-02-01T22:34:16;22.92;;;2.61;;
17741;SDS011;8993;51.822;-2.268;2023-02-01T22:39:22;18.01;;;2.48;;
17741;SDS011;8993;51.822;-2.268;2023-02-01T22:44:26;18.35;;;2.22;;
17741;SDS011;8993;51.822;-2.268;2023-02-01T22:49:31;22.48;;;2.55;;
17741;SDS011;8993;51.822;-2.268;2023-02-01T22:54:35;21.80;;;2.46;;
17741;SDS011;8993;51.822;-2.268;2023-02-01T22:59:41;18.81;;;2.55;;
17741;SDS011;8993;51.822;-2.268;2023-02-01T23:04:44;19.76;;;3.33;;
17741;SDS011;8993;51.822;-2.268;2023-02-01T23:09:48;20.10;;;3.02;;
17741;SDS011;8993;51.822;-2.268;2023-02-01T23:14:52;24.21;;;2.99;;
17741;SDS011;8993;51.822;-2.268;2023-02-01T23:19:56;21.11;;;2.80;;
17741;SDS011;8993;51.822;-2.268;2023-02-01T23:25:01;18.36;;;2.52;;
17741;SDS011;8993;51.822;-2.268;2023-02-01T23:30:08;20.88;;;2.59;;
17741;SDS011;8993;51.822;-2.268;2023-02-01T23:35:09;20.89;;;2.81;;
17741;SDS011;8993;51.822;-2.268;2023-02-01T23:40:14;23.56;;;2.72;;
17741;SDS011;8993;51.822;-2.268;2023-02-01T23:45:18;18.15;;;2.35;;
17741;SDS011;8993;51.822;-2.268;2023-02-01T23:50:22;19.12;;;2.59;;
17741;SDS011;8993;51.822;-2.268;2023-02-01T23:55:27;19.73;;;2.62;;
